Jump to content


SKYWEST AIRLINES FLIGHT OO1687 FLOWN ON 01-31-2018 BY CAPTAIN JIM BOERMAN

Pilot StatsCaptain Jim Boerman (LDP136) • 4,917.8 total hours • 1,480 total flights [View Logbook]
FLIGHT DETAILS
StatusReceived and approved on 2018-01-31 at 10:01:49
Origin AirportMcGhee Tyson (KTYS) • Knoxville, Tennessee, United States (981 feet MSL)
Filed Flight PlanKTYS VXV J43 FLM KCVG
Destination AirportCincinnati-Northern Ky Intl (KCVG) • Cincinnati, Ohio, United States (896 feet MSL)
Alternate AirportNone Filed
AirlineSkywest Airlines
AircraftBombardier CRJ-700 (CR7 / CRJ-700)
FS Aircraft UsedCRJ700ER Delta Airways N367CA
Cruising AltitudeFL340
Distance Flown197 nautical miles
Passengers Onboard49 passengers (70.00% full)
DEPARTURE DETAILS
Time Out09:26:00
Taxi Data55,246 lbs total with 7,446 lbs of fuel onboard
Takeoff Data09:26:24 (0 minutes after leaving gate/ramp) • 55,246 lbs total • -2° pitch at 0 knots
Departure METARKTYS 311253Z 05003KT 10SM BKN250 M05/M08 A3031 RMK AO2 SLP271 T10501078
ARRIVAL DETAILS
Landing Data10:25:29 • 52,192 lbs total • 2° pitch doing 113 knots at a rate of -278.36 feet/minute with 4,128 lbs of fuel onboard
Time In10:36:05 (11 minutes after landing)
Ramp Weight51,883 lbs total
Total Fuel Used3,318 lbs
Total Block Time01:10:04 (1.2 hours) while 11 minutes were spent on the ground
Arrival METARKCVG 311452Z 19014KT 10SM SCT140 BKN250 02/M07 A3002 RMK AO2 SLP173 T00171067 56031
MISCELLANEOUS DETAILS
LiveDISPATCH Version4.8.3.1
FS Version
FSUIPC Version5.12
OS VersionWindows 7 32-bit
Screen Resolution1920 x 1080
Pilot's CommentsNo Comments Reported
FLIGHT MAP